Time;durP1;ratioP1;P1;durP2;ratioP2;P2;SDS_P1;SDS_P2;PMS_P1;PMS_P2;Temp;Humidity;BMP_temperature;BMP_pressure;BME280_temperature;BME280_humidity;BME280_pressure;Samples;Min_cycle;Max_cycle;Signal;HPM_P1;HPM_P2
2024/02/27 00:01:12;;;;;;;7.20;6.00;;;;;;;8.41;67.97;94598.13;5016115;28;20278;-78
2024/02/27 00:03:37;;;;;;;6.27;5.73;;;;;;;8.38;67.76;94591.47;5018199;28;20213;-78
2024/02/27 00:06:03;;;;;;;4.00;3.70;;;;;;;8.33;67.76;94588.53;5020053;28;20183;-78
2024/02/27 00:08:28;;;;;;;4.60;3.60;;;;;;;8.23;68.42;94587.84;5001402;28;20198;-78
2024/02/27 00:10:54;;;;;;;3.63;3.30;;;;;;;8.26;68.71;94597.06;5016233;28;20215;-78
2024/02/27 00:13:19;;;;;;;3.00;2.80;;;;;;;8.37;68.14;94601.97;5005611;28;20193;-77
2024/02/27 00:15:44;;;;;;;2.87;2.47;;;;;;;8.36;68.41;94600.34;5019189;28;20214;-78
2024/02/27 00:18:13;;;;;;;3.43;2.00;;;;;;;8.32;68.02;94601.63;5015569;28;20190;-77
2024/02/27 00:20:39;;;;;;;2.13;1.93;;;;;;;8.33;68.58;94604.03;5005894;28;20187;-78
2024/02/27 00:23:04;;;;;;;2.93;1.80;;;;;;;8.24;68.58;94605.78;5005485;28;20194;-77
2024/02/27 00:25:29;;;;;;;2.83;1.83;;;;;;;8.30;68.42;94612.09;5007119;28;20710;-78
2024/02/27 00:27:55;;;;;;;2.60;1.50;;;;;;;8.24;68.57;94620.50;5018451;28;20555;-78
2024/02/27 00:30:20;;;;;;;1.87;1.50;;;;;;;8.32;68.47;94617.94;5019847;28;20541;-78
2024/02/27 00:32:45;;;;;;;4.07;1.70;;;;;;;8.33;68.56;94631.69;5016992;28;20197;-78
2024/02/27 00:35:11;;;;;;;1.50;1.30;;;;;;;8.32;69.17;94638.63;5014373;28;20587;-78
2024/02/27 00:37:36;;;;;;;1.70;1.47;;;;;;;8.19;69.29;94641.63;5016197;28;20187;-78
2024/02/27 00:40:04;;;;;;;2.47;1.77;;;;;;;8.36;68.86;94644.34;5021122;28;20199;-77
2024/02/27 00:42:29;;;;;;;2.33;1.70;;;;;;;8.23;69.00;94660.28;5016811;28;20237;-78
2024/02/27 00:44:54;;;;;;;1.40;1.30;;;;;;;8.42;68.58;94649.69;5019073;28;20210;-78
2024/02/27 00:47:20;;;;;;;1.63;1.27;;;;;;;8.08;69.88;94657.44;5005212;28;20178;-77
2024/02/27 00:49:45;;;;;;;1.30;1.20;;;;;;;8.31;69.61;94659.50;5017550;28;20221;-78
2024/02/27 00:52:11;;;;;;;1.83;1.37;;;;;;;8.36;69.50;94665.03;5016226;28;20187;-78
2024/02/27 00:54:36;;;;;;;2.50;1.40;;;;;;;8.41;69.38;94666.19;5014128;28;20207;-78
2024/02/27 00:57:01;;;;;;;1.80;1.27;;;;;;;8.39;69.29;94667.28;5003276;28;20541;-78
2024/02/27 00:59:27;;;;;;;1.57;1.27;;;;;;;8.24;70.23;94660.09;5016515;28;20230;-78
2024/02/27 01:01:53;;;;;;;1.30;1.10;;;;;;;8.34;69.74;94667.75;5016433;28;20209;-77
2024/02/27 01:04:18;;;;;;;1.70;1.30;;;;;;;8.13;70.97;94662.97;5015792;28;20207;-78
2024/02/27 01:06:44;;;;;;;1.53;1.30;;;;;;;8.17;71.34;94666.84;5003599;28;20195;-78
2024/02/27 01:09:10;;;;;;;1.73;1.50;;;;;;;8.25;71.85;94663.50;5014201;28;20214;-78
2024/02/27 01:11:36;;;;;;;1.70;1.50;;;;;;;8.10;72.31;94659.88;5006419;28;20225;-78
2024/02/27 01:14:01;;;;;;;1.83;1.50;;;;;;;8.33;71.09;94657.56;5018633;28;20202;-77
2024/02/27 01:16:26;;;;;;;2.43;1.80;;;;;;;7.96;73.46;94666.44;5017179;28;20218;-78
2024/02/27 01:18:52;;;;;;;1.57;1.33;;;;;;;8.05;72.53;94662.13;5015013;28;20571;-78
2024/02/27 01:21:17;;;;;;;2.70;1.73;;;;;;;8.02;73.80;94660.63;5018491;28;20240;-78
2024/02/27 01:23:43;;;;;;;1.90;1.40;;;;;;;8.18;72.73;94665.06;5017693;28;20576;-78
2024/02/27 01:26:08;;;;;;;2.80;1.53;;;;;;;7.98;74.43;94671.44;5018928;28;20203;-77
2024/02/27 01:28:33;;;;;;;2.30;2.00;;;;;;;8.16;73.10;94664.44;5019569;28;20285;-78
2024/02/27 01:30:59;;;;;;;2.10;1.67;;;;;;;7.92;74.16;94662.50;5021941;28;20383;-78
2024/02/27 01:33:24;;;;;;;4.00;2.13;;;;;;;8.07;73.83;94660.19;5002089;28;20436;-78
2024/02/27 01:35:50;;;;;;;3.47;1.90;;;;;;;8.10;73.85;94662.44;5020611;28;20794;-78
2024/02/27 01:38:15;;;;;;;2.43;2.20;;;;;;;7.97;75.08;94660.28;5007425;28;20198;-78
2024/02/27 01:40:40;;;;;;;2.87;2.50;;;;;;;8.01;74.94;94651.25;5021263;28;20265;-77
2024/02/27 01:43:25;;;;;;;3.70;2.70;;;;;;;7.89;75.68;94657.66;5019014;28;20200;-78
2024/02/27 01:45:59;;;;;;;3.63;2.50;;;;;;;7.68;76.74;94655.41;5020274;28;20179;-77
2024/02/27 01:48:24;;;;;;;5.07;2.93;;;;;;;7.83;76.39;94648.72;5009622;28;20193;-77
2024/02/27 01:50:50;;;;;;;4.00;2.40;;;;;;;7.88;75.89;94654.25;5020644;28;20191;-77
2024/02/27 01:53:15;;;;;;;4.57;2.47;;;;;;;7.94;76.36;94658.00;5017073;28;20261;-78
2024/02/27 01:55:42;;;;;;;4.57;2.97;;;;;;;7.92;76.13;94654.75;5020910;28;20257;-78
2024/02/27 01:58:08;;;;;;;3.53;2.77;;;;;;;7.92;76.00;94665.09;5022238;28;20187;-78
2024/02/27 02:00:33;;;;;;;3.80;2.80;;;;;;;7.87;76.72;94664.75;5015454;28;20649;-78
2024/02/27 02:03:01;;;;;;;3.67;3.10;;;;;;;7.92;75.84;94673.66;5018752;28;20191;-78
2024/02/27 02:05:27;;;;;;;4.10;3.40;;;;;;;7.69;76.52;94674.34;5009619;28;20713;-78
2024/02/27 02:07:52;;;;;;;4.47;3.93;;;;;;;7.68;76.33;94683.84;5023617;28;20187;-78
2024/02/27 02:10:18;;;;;;;7.30;4.63;;;;;;;7.76;75.37;94680.50;5006444;28;20277;-77
2024/02/27 02:12:43;;;;;;;6.50;4.90;;;;;;;7.53;76.30;94683.59;5009350;28;20579;-77
2024/02/27 02:15:08;;;;;;;7.90;4.70;;;;;;;7.70;75.75;94683.72;5021235;28;20225;-78
2024/02/27 02:17:34;;;;;;;5.47;4.97;;;;;;;7.28;77.09;94689.50;5019414;28;20219;-78
2024/02/27 02:19:59;;;;;;;8.73;5.30;;;;;;;7.49;76.35;94682.25;5014968;28;20198;-77
2024/02/27 02:22:25;;;;;;;7.17;5.23;;;;;;;7.13;76.82;94683.22;5021924;28;20703;-78
2024/02/27 02:24:50;;;;;;;7.03;5.70;;;;;;;7.12;77.20;94681.63;5003695;28;20207;-78
2024/02/27 02:27:18;;;;;;;8.30;6.30;;;;;;;7.16;75.72;94685.53;5005832;28;20178;-78
2024/02/27 02:29:44;;;;;;;7.50;5.80;;;;;;;7.22;75.52;94680.56;5001387;28;20194;-78
2024/02/27 02:32:09;;;;;;;6.73;5.50;;;;;;;7.26;75.72;94676.75;5018947;28;20863;-77
2024/02/27 02:34:35;;;;;;;9.13;6.80;;;;;;;7.17;76.07;94689.75;5019725;28;20206;-78
2024/02/27 02:37:00;;;;;;;8.73;6.33;;;;;;;7.24;75.50;94683.00;5017477;28;20202;-78
2024/02/27 02:39:25;;;;;;;8.93;6.60;;;;;;;7.15;75.03;94691.63;5022403;28;20683;-77
2024/02/27 02:41:51;;;;;;;9.30;6.77;;;;;;;7.32;73.95;94693.41;5019117;28;20668;-77
2024/02/27 02:44:16;;;;;;;8.63;6.23;;;;;;;7.36;73.91;94700.72;5015401;28;20219;-78
2024/02/27 02:46:43;;;;;;;8.93;6.90;;;;;;;7.19;73.82;94693.78;5017075;28;20190;-77
2024/02/27 02:49:08;;;;;;;8.07;6.47;;;;;;;7.23;73.51;94699.47;5021413;28;20183;-78
2024/02/27 02:51:33;;;;;;;10.67;7.20;;;;;;;6.93;74.23;94706.59;5007556;28;20214;-78
2024/02/27 02:53:59;;;;;;;12.93;7.30;;;;;;;7.00;73.63;94702.50;4984786;28;20221;-78
2024/02/27 02:56:24;;;;;;;11.07;7.00;;;;;;;7.24;72.63;94707.06;5008444;28;20238;-77
2024/02/27 02:58:49;;;;;;;8.87;6.43;;;;;;;7.16;72.99;94719.91;5003591;28;20279;-77
2024/02/27 03:01:15;;;;;;;9.43;7.30;;;;;;;7.13;73.69;94722.78;5003693;28;20198;-78
2024/02/27 03:03:40;;;;;;;11.07;7.17;;;;;;;6.94;73.46;94728.88;5018835;28;20206;-77
2024/02/27 03:06:06;;;;;;;9.57;7.10;;;;;;;6.92;73.94;94730.78;5021791;28;20585;-78
2024/02/27 03:08:31;;;;;;;10.37;6.87;;;;;;;7.19;72.32;94745.44;5003137;28;20765;-78
2024/02/27 03:10:57;;;;;;;11.10;7.23;;;;;;;7.29;72.00;94746.16;5015086;28;20200;-78
2024/02/27 03:13:22;;;;;;;9.97;7.20;;;;;;;7.12;72.16;94746.16;5006780;28;20277;-77
2024/02/27 03:15:48;;;;;;;10.50;7.63;;;;;;;7.18;71.85;94740.41;5017773;28;20243;-78
2024/02/27 03:18:13;;;;;;;10.47;7.57;;;;;;;7.21;72.09;94747.84;5016992;28;20187;-78
2024/02/27 03:20:38;;;;;;;10.53;7.73;;;;;;;6.85;73.15;94747.00;5021906;28;20191;-77
2024/02/27 03:23:04;;;;;;;8.47;6.50;;;;;;;7.20;72.31;94744.47;5020066;28;20190;-77
2024/02/27 03:25:29;;;;;;;9.93;7.67;;;;;;;6.96;72.96;94746.78;5004920;28;20592;-78
2024/02/27 03:27:54;;;;;;;10.77;7.43;;;;;;;7.00;73.10;94748.16;5018951;28;20187;-77
2024/02/27 03:30:20;;;;;;;11.03;7.10;;;;;;;7.04;72.18;94750.28;5019538;28;20190;-77
2024/02/27 03:32:45;;;;;;;12.03;7.67;;;;;;;7.21;71.90;94753.03;5020833;28;20178;-78
2024/02/27 03:35:11;;;;;;;9.23;7.27;;;;;;;7.24;71.70;94755.31;5015071;28;20221;-78
2024/02/27 03:37:37;;;;;;;11.40;7.50;;;;;;;7.34;71.46;94749.13;5006039;28;20300;-78
2024/02/27 03:40:03;;;;;;;11.30;7.90;;;;;;;7.19;71.70;94752.38;5006911;28;20199;-77
2024/02/27 03:42:29;;;;;;;10.37;7.73;;;;;;;7.26;71.59;94746.47;5004237;28;20672;-78
2024/02/27 03:44:54;;;;;;;10.70;7.90;;;;;;;7.11;72.13;94755.69;5014113;28;20306;-78
2024/02/27 03:47:19;;;;;;;11.90;8.10;;;;;;;6.99;72.68;94756.84;5007208;28;20261;-78
2024/02/27 03:49:45;;;;;;;11.53;7.97;;;;;;;7.13;71.76;94758.09;5018428;28;20563;-78
2024/02/27 03:52:10;;;;;;;13.10;7.80;;;;;;;7.16;71.60;94757.84;5002993;28;20794;-78
2024/02/27 03:54:36;;;;;;;14.37;8.27;;;;;;;7.17;71.84;94764.63;4999346;28;20226;-78
2024/02/27 03:57:01;;;;;;;9.73;7.97;;;;;;;7.06;72.05;94771.59;5017666;28;20305;-78
2024/02/27 03:59:26;;;;;;;10.60;8.10;;;;;;;7.00;72.72;94772.19;5017695;28;20684;-77
2024/02/27 04:01:52;;;;;;;10.97;8.13;;;;;;;7.10;72.30;94778.09;5003802;28;20191;-77
2024/02/27 04:04:17;;;;;;;10.90;7.57;;;;;;;6.94;72.71;94785.66;5003478;28;20225;-78
2024/02/27 04:06:43;;;;;;;9.73;7.83;;;;;;;6.98;72.96;94787.00;5017341;28;20270;-78
2024/02/27 04:09:08;;;;;;;12.17;8.53;;;;;;;6.82;73.39;94787.63;5016156;28;20286;-78
2024/02/27 04:11:34;;;;;;;12.87;8.47;;;;;;;6.94;72.96;94782.28;5003865;28;20194;-78
2024/02/27 04:13:59;;;;;;;12.93;8.73;;;;;;;6.90;73.63;94779.16;5015380;28;20210;-77
2024/02/27 04:16:25;;;;;;;10.97;8.20;;;;;;;6.84;74.07;94790.06;5015458;28;20246;-77
2024/02/27 04:18:50;;;;;;;11.10;8.63;;;;;;;6.94;73.54;94790.00;5019995;28;20280;-78
2024/02/27 04:21:15;;;;;;;12.37;8.80;;;;;;;6.72;74.44;94791.22;5000345;28;20195;-78
2024/02/27 04:23:41;;;;;;;10.03;8.20;;;;;;;6.70;74.82;94787.94;5018588;28;20233;-76
2024/02/27 04:26:06;;;;;;;10.73;8.27;;;;;;;6.81;74.44;94785.19;5010166;28;20187;-78
2024/02/27 04:28:32;;;;;;;13.23;8.80;;;;;;;6.72;75.30;94779.13;5017053;28;20210;-77
2024/02/27 04:30:57;;;;;;;11.53;8.40;;;;;;;6.85;74.83;94780.53;5016627;28;20559;-77
2024/02/27 04:33:22;;;;;;;12.37;8.30;;;;;;;6.77;75.24;94792.38;5017082;28;20189;-77
2024/02/27 04:35:48;;;;;;;13.53;8.93;;;;;;;6.81;74.98;94803.25;5017825;28;20228;-77
2024/02/27 04:38:13;;;;;;;12.93;8.87;;;;;;;6.79;74.94;94808.53;5015959;28;20182;-77
2024/02/27 04:40:40;;;;;;;11.43;8.47;;;;;;;7.02;74.13;94808.97;5008922;28;20229;-78
2024/02/27 04:43:05;;;;;;;12.93;8.53;;;;;;;7.06;74.47;94810.31;5001727;28;20651;-78
2024/02/27 04:45:30;;;;;;;11.37;8.07;;;;;;;6.81;75.07;94803.25;5018133;28;20301;-78
2024/02/27 04:47:56;;;;;;;11.03;8.03;;;;;;;6.82;75.14;94815.19;5007755;28;20241;-78
2024/02/27 04:50:22;;;;;;;11.20;7.47;;;;;;;6.69;75.77;94822.44;5004273;28;20211;-78
2024/02/27 04:52:47;;;;;;;12.07;8.53;;;;;;;6.69;75.76;94823.25;5003373;28;20226;-77
2024/02/27 04:55:13;;;;;;;12.80;9.07;;;;;;;6.81;75.57;94827.28;5009365;28;20685;-78
2024/02/27 04:57:38;;;;;;;12.90;9.33;;;;;;;6.89;74.95;94825.75;5001394;28;20246;-77
2024/02/27 05:00:09;;;;;;;12.13;9.10;;;;;;;6.94;74.73;94834.69;5016851;28;20194;-78
2024/02/27 05:02:35;;;;;;;14.47;9.07;;;;;;;7.06;74.29;94840.47;5021483;28;20191;-78
2024/02/27 05:05:00;;;;;;;12.60;8.57;;;;;;;7.02;74.58;94847.72;5020319;28;20268;-78
2024/02/27 05:07:26;;;;;;;13.37;9.07;;;;;;;6.94;75.14;94845.03;5021153;28;20656;-77
2024/02/27 05:09:51;;;;;;;16.07;10.20;;;;;;;6.93;75.58;94848.56;5024388;28;20190;-78
2024/02/27 05:12:16;;;;;;;16.43;10.87;;;;;;;6.91;76.41;94844.50;5012363;28;20198;-77
2024/02/27 05:14:42;;;;;;;16.10;10.60;;;;;;;6.63;77.64;94847.06;5027973;28;20210;-77
2024/02/27 05:17:07;;;;;;;16.63;10.90;;;;;;;6.46;79.38;94847.78;5028269;28;20218;-77
2024/02/27 05:19:32;;;;;;;17.63;11.50;;;;;;;6.83;77.85;94840.06;5017936;28;20212;-77
2024/02/27 05:21:58;;;;;;;15.30;11.73;;;;;;;6.48;79.71;94836.38;5021108;28;20195;-78
2024/02/27 05:24:24;;;;;;;17.23;11.80;;;;;;;6.71;78.63;94836.00;5011405;28;20213;-77
2024/02/27 05:26:49;;;;;;;15.30;11.80;;;;;;;6.37;79.81;94836.53;5019184;28;20230;-77
2024/02/27 05:29:14;;;;;;;19.57;12.90;;;;;;;6.62;79.25;94842.00;5019755;28;20207;-79
2024/02/27 05:31:40;;;;;;;21.00;13.60;;;;;;;6.58;80.06;94845.84;5018178;28;20215;-77
2024/02/27 05:34:05;;;;;;;22.33;13.83;;;;;;;6.49;80.68;94852.66;5025086;28;20230;-80
2024/02/27 05:36:31;;;;;;;23.17;13.37;;;;;;;6.55;80.43;94865.00;5018121;28;20657;-78
2024/02/27 05:38:56;;;;;;;19.67;13.50;;;;;;;6.39;80.47;94859.59;5003648;28;20728;-78
2024/02/27 05:41:22;;;;;;;17.97;12.27;;;;;;;6.54;80.49;94865.94;5020768;28;20187;-78
2024/02/27 05:43:48;;;;;;;17.87;13.73;;;;;;;6.80;79.50;94871.28;5006033;28;20203;-79
2024/02/27 05:46:14;;;;;;;19.87;12.63;;;;;;;6.78;79.21;94875.78;5008811;28;20181;-78
2024/02/27 05:48:41;;;;;;;18.67;13.37;;;;;;;6.63;79.99;94879.78;5022435;28;20567;-78
2024/02/27 05:51:07;;;;;;;22.17;14.07;;;;;;;6.90;79.04;94891.94;5021528;28;20187;-79
2024/02/27 05:53:34;;;;;;;20.30;14.87;;;;;;;6.80;79.40;94885.03;5017155;28;20189;-78
2024/02/27 05:56:00;;;;;;;26.60;18.00;;;;;;;6.64;80.28;94902.03;5019842;28;20206;-78
2024/02/27 05:58:25;;;;;;;23.37;16.43;;;;;;;6.58;80.75;94898.25;5020179;28;20213;-78
2024/02/27 06:00:51;;;;;;;25.07;16.37;;;;;;;6.72;80.33;94902.16;5022454;28;20198;-78
2024/02/27 06:03:20;;;;;;;21.30;16.43;;;;;;;6.62;80.77;94898.78;5019490;28;20197;-77
2024/02/27 06:05:45;;;;;;;23.90;15.90;;;;;;;6.46;81.55;94896.78;5021639;28;20187;-78
2024/02/27 06:08:12;;;;;;;24.93;16.63;;;;;;;6.27;82.33;94889.84;5020785;28;20682;-78
2024/02/27 06:10:38;;;;;;;24.03;16.27;;;;;;;6.34;82.42;94885.78;5017690;28;20215;-78
2024/02/27 06:13:03;;;;;;;21.30;15.80;;;;;;;6.19;82.84;94898.31;5010510;28;20179;-78
2024/02/27 06:15:29;;;;;;;26.37;17.17;;;;;;;6.40;82.60;94894.75;5017150;28;20762;-79
2024/02/27 06:17:54;;;;;;;23.83;16.07;;;;;;;6.27;82.67;94897.59;5011900;28;20720;-78
2024/02/27 06:23:04;;;;;;;24.07;17.07;;;;;;;6.35;82.29;94912.38;5020313;28;20201;-78
2024/02/27 06:25:29;;;;;;;23.93;16.17;;;;;;;6.47;81.94;94917.28;5018348;28;20649;-78
2024/02/27 06:27:55;;;;;;;24.90;17.73;;;;;;;6.58;81.49;94921.47;5021088;28;20198;-78
2024/02/27 06:30:20;;;;;;;25.87;17.27;;;;;;;6.44;81.97;94921.88;5021169;28;20190;-79
2024/02/27 06:32:45;;;;;;;26.30;18.07;;;;;;;6.44;82.13;94916.72;5015477;28;20240;-79
2024/02/27 06:35:11;;;;;;;30.37;18.77;;;;;;;6.50;81.63;94922.16;5017537;28;20290;-76
2024/02/27 06:37:36;;;;;;;28.77;18.53;;;;;;;6.33;82.64;94920.25;5013757;28;20492;-79
2024/02/27 06:40:03;;;;;;;25.43;17.90;;;;;;;6.37;82.11;94931.94;5020104;28;20202;-78
2024/02/27 06:42:34;;;;;;;28.70;19.27;;;;;;;6.27;82.63;94925.16;5021695;28;20221;-78
2024/02/27 06:45:01;;;;;;;29.20;19.60;;;;;;;6.33;82.15;94925.41;5022362;28;20833;-78
2024/02/27 06:47:27;;;;;;;29.07;19.27;;;;;;;6.19;82.62;94929.25;5012366;28;20625;-78
2024/02/27 06:49:52;;;;;;;30.47;20.20;;;;;;;6.23;82.32;94928.00;5020382;28;20270;-78
2024/02/27 06:52:17;;;;;;;27.27;19.27;;;;;;;6.35;81.59;94923.50;5005486;28;20201;-77
2024/02/27 06:54:42;;;;;;;28.43;20.03;;;;;;;6.27;81.88;94925.16;5018129;28;20210;-78
2024/02/27 06:57:08;;;;;;;28.00;18.37;;;;;;;6.19;82.32;94928.44;5027230;28;20218;-79
2024/02/27 06:59:33;;;;;;;28.30;19.23;;;;;;;6.50;80.70;94936.81;5011821;28;20202;-77
2024/02/27 07:02:00;;;;;;;31.70;20.13;;;;;;;6.30;81.24;94930.88;5008638;28;20210;-78
2024/02/27 07:04:25;;;;;;;30.27;20.70;;;;;;;6.30;81.46;94930.88;5024495;28;20580;-78
2024/02/27 07:06:50;;;;;;;25.37;18.43;;;;;;;6.14;81.60;94933.16;5024636;28;20219;-78
2024/02/27 07:09:16;;;;;;;28.67;18.20;;;;;;;6.42;80.56;94934.91;5012307;28;20223;-78
2024/02/27 07:11:41;;;;;;;26.00;18.33;;;;;;;6.28;80.93;94937.94;5017047;28;20274;-77
2024/02/27 07:14:06;;;;;;;27.77;18.83;;;;;;;6.11;81.73;94942.00;5021986;28;20215;-77
2024/02/27 07:16:32;;;;;;;26.27;20.03;;;;;;;6.21;81.17;94942.00;5028995;28;20651;-78
2024/02/27 07:18:57;;;;;;;30.60;20.47;;;;;;;6.33;80.29;94947.81;5017880;28;20637;-78
2024/02/27 07:21:22;;;;;;;30.47;18.93;;;;;;;6.46;79.08;94949.19;5013968;28;20183;-78
2024/02/27 07:23:48;;;;;;;31.97;20.67;;;;;;;6.55;79.23;94950.13;5023646;28;20207;-77
2024/02/27 07:26:13;;;;;;;31.60;19.53;;;;;;;6.38;79.50;94953.41;5012959;28;20828;-78
2024/02/27 07:28:38;;;;;;;27.23;18.17;;;;;;;6.39;78.84;94966.16;5005166;28;20183;-77
2024/02/27 07:31:04;;;;;;;26.63;17.83;;;;;;;6.59;78.46;94968.72;5018982;28;20186;-77
2024/02/27 07:33:29;;;;;;;29.60;19.27;;;;;;;6.54;78.36;94969.13;5015706;28;20191;-78
2024/02/27 07:35:54;;;;;;;25.50;18.33;;;;;;;6.84;76.76;94975.88;5018660;28;20202;-77
2024/02/27 07:38:20;;;;;;;27.07;17.73;;;;;;;6.43;77.83;94971.84;5004392;28;20632;-77
2024/02/27 07:40:45;;;;;;;28.33;19.27;;;;;;;6.50;78.49;94978.91;5007615;28;20198;-78
2024/02/27 07:43:10;;;;;;;30.13;19.83;;;;;;;6.79;76.72;94978.03;5018965;28;20178;-77
2024/02/27 07:45:36;;;;;;;27.47;18.20;;;;;;;6.53;77.60;94980.38;5015767;28;20586;-77
2024/02/27 07:48:01;;;;;;;24.63;17.80;;;;;;;6.78;77.29;94979.81;5017693;28;20340;-77
2024/02/27 07:50:27;;;;;;;25.67;17.47;;;;;;;6.66;76.72;94982.69;5017677;28;20645;-76
2024/02/27 07:52:57;;;;;;;28.97;19.10;;;;;;;6.77;76.64;94991.09;5004738;28;20215;-77
2024/02/27 07:55:22;;;;;;;27.67;18.00;;;;;;;6.53;76.90;94999.25;5014780;28;20231;-77
2024/02/27 07:57:48;;;;;;;27.40;17.80;;;;;;;6.46;78.00;94993.03;5014314;28;20320;-78
2024/02/27 08:00:14;;;;;;;26.70;17.70;;;;;;;6.32;78.79;95008.09;5010833;28;20178;-77
2024/02/27 08:02:39;;;;;;;26.77;17.70;;;;;;;6.63;77.22;94999.28;5018006;28;20194;-78
2024/02/27 08:05:04;;;;;;;25.93;18.60;;;;;;;6.73;76.66;95000.06;5021120;28;20574;-78
2024/02/27 08:07:31;;;;;;;27.00;19.27;;;;;;;6.75;77.07;94999.94;5019133;28;20187;-78
2024/02/27 08:09:57;;;;;;;25.13;18.17;;;;;;;6.94;76.16;95007.66;5016405;28;20217;-77
2024/02/27 08:12:22;;;;;;;30.20;19.63;;;;;;;6.43;78.40;95013.09;5015320;28;20632;-78
2024/02/27 08:14:48;;;;;;;26.23;17.70;;;;;;;6.65;77.66;95015.44;5016902;28;20657;-78
2024/02/27 08:17:13;;;;;;;28.93;19.93;;;;;;;6.80;77.53;95011.47;5018413;28;20301;-77
2024/02/27 08:19:39;;;;;;;30.60;19.07;;;;;;;6.65;77.27;95022.34;5002024;28;20575;-77
2024/02/27 08:22:05;;;;;;;25.07;18.17;;;;;;;6.77;77.63;95016.09;5020294;28;20217;-76
2024/02/27 08:24:34;;;;;;;28.20;17.97;;;;;;;6.62;78.10;95018.25;5021567;28;20295;-78
2024/02/27 08:27:00;;;;;;;25.40;18.17;;;;;;;6.65;78.28;95020.59;5002515;28;20179;-77
2024/02/27 08:29:25;;;;;;;31.53;20.53;;;;;;;6.73;78.35;95014.75;5017032;28;20562;-77
2024/02/27 08:31:50;;;;;;;28.70;21.93;;;;;;;6.59;78.38;95023.69;5024683;28;20637;-78
2024/02/27 08:34:16;;;;;;;29.23;19.60;;;;;;;7.04;76.96;95023.13;5019728;28;20210;-77
2024/02/27 08:36:41;;;;;;;27.43;20.23;;;;;;;6.89;76.96;95030.50;5020667;28;20264;-77
2024/02/27 08:39:08;;;;;;;28.13;19.93;;;;;;;7.15;76.95;95032.47;5018322;28;20219;-78
2024/02/27 08:41:35;;;;;;;30.43;18.93;;;;;;;6.93;76.99;95034.41;5011027;28;20207;-77
2024/02/27 08:44:01;;;;;;;32.33;20.87;;;;;;;6.99;76.89;95025.31;5016932;28;20210;-78
2024/02/27 08:46:26;;;;;;;33.73;21.03;;;;;;;6.89;77.76;95022.75;5010893;28;20336;-78
2024/02/27 08:48:53;;;;;;;32.93;21.70;;;;;;;7.23;75.99;95017.09;5007966;28;20190;-79
2024/02/27 08:51:18;;;;;;;28.53;21.07;;;;;;;7.47;75.12;95009.69;5010563;28;20191;-77
2024/02/27 08:53:43;;;;;;;30.60;20.37;;;;;;;6.95;76.94;95017.00;5018571;28;20205;-77
2024/02/27 08:56:09;;;;;;;30.87;20.23;;;;;;;6.94;77.46;95012.00;5012581;28;20680;-77
2024/02/27 08:58:35;;;;;;;31.03;19.50;;;;;;;6.97;76.94;95016.88;5021409;28;20237;-79
2024/02/27 09:01:01;;;;;;;28.83;21.07;;;;;;;6.96;77.22;95015.25;5016887;28;20281;-78
2024/02/27 09:03:26;;;;;;;28.47;19.33;;;;;;;7.24;76.64;95018.72;5010828;28;20463;-78
2024/02/27 09:05:51;;;;;;;28.27;20.67;;;;;;;7.52;74.14;95028.16;5019705;28;20271;-78
2024/02/27 09:08:17;;;;;;;28.73;20.17;;;;;;;7.66;73.55;95037.22;5021112;28;20193;-78
2024/02/27 09:10:46;;;;;;;29.00;19.90;;;;;;;7.79;73.58;95036.91;5014663;28;20789;-78
2024/02/27 09:13:11;;;;;;;27.37;19.40;;;;;;;7.64;73.66;95042.53;5011467;28;20611;-76
2024/02/27 09:15:37;;;;;;;28.53;20.17;;;;;;;7.94;73.42;95050.97;5012594;28;20214;-78
2024/02/27 09:18:03;;;;;;;25.27;18.87;;;;;;;7.86;72.25;95033.59;5005282;28;20255;-78
2024/02/27 09:20:31;;;;;;;31.53;19.50;;;;;;;8.11;71.99;95039.03;5011202;28;20186;-77
2024/02/27 09:22:57;;;;;;;28.57;19.67;;;;;;;8.00;72.26;95042.63;5017503;28;20182;-78
2024/02/27 09:25:22;;;;;;;25.47;18.70;;;;;;;7.87;72.54;95040.41;5016550;28;20207;-77
2024/02/27 09:27:47;;;;;;;31.13;20.53;;;;;;;8.05;71.51;95037.88;5017880;28;20198;-78
2024/02/27 09:30:13;;;;;;;25.80;19.80;;;;;;;8.02;72.13;95030.38;5014663;28;20675;-79
2024/02/27 09:32:38;;;;;;;32.03;21.73;;;;;;;7.36;75.14;95033.09;5018936;28;20195;-78
2024/02/27 09:35:07;;;;;;;32.93;21.10;;;;;;;7.84;72.94;95042.44;5018778;28;20263;-78
2024/02/27 09:37:32;;;;;;;28.73;20.13;;;;;;;7.69;73.44;95034.38;5016378;28;20203;-76
2024/02/27 09:39:58;;;;;;;26.70;19.43;;;;;;;7.99;72.22;95035.84;5002440;28;20229;-78
2024/02/27 09:42:23;;;;;;;28.07;19.93;;;;;;;8.13;71.75;95037.16;5008213;28;20210;-78
2024/02/27 09:44:52;;;;;;;30.97;21.60;;;;;;;7.91;72.27;95035.75;5020185;28;20619;-78
2024/02/27 09:47:18;;;;;;;28.23;20.73;;;;;;;8.01;72.78;95040.88;5015986;28;20202;-78
2024/02/27 09:49:45;;;;;;;30.13;21.57;;;;;;;8.29;71.38;95042.47;5009402;28;20190;-78
2024/02/27 09:52:13;;;;;;;28.57;19.90;;;;;;;8.15;70.43;95043.78;5020630;28;20191;-78
2024/02/27 09:54:39;;;;;;;26.43;20.00;;;;;;;8.34;70.32;95042.03;5018570;28;20198;-78
2024/02/27 09:57:05;;;;;;;29.10;20.20;;;;;;;8.01;71.91;95044.25;5017898;28;20221;-77
2024/02/27 09:59:31;;;;;;;31.87;21.27;;;;;;;7.63;72.60;95053.00;5019901;28;20246;-77
2024/02/27 10:02:04;;;;;;;28.90;20.53;;;;;;;7.77;72.65;95052.53;5003348;28;20648;-78
2024/02/27 10:04:30;;;;;;;28.10;20.10;;;;;;;7.72;72.38;95049.56;5019540;28;20210;-78
2024/02/27 10:06:57;;;;;;;29.10;19.83;;;;;;;8.03;72.48;95062.22;5008758;28;20191;-78
2024/02/27 10:09:23;;;;;;;28.77;20.13;;;;;;;7.68;72.75;95058.56;5019101;28;20218;-77
2024/02/27 10:11:49;;;;;;;29.33;19.47;;;;;;;7.37;73.41;95061.38;5002224;28;20294;-78
2024/02/27 10:14:21;;;;;;;24.43;18.37;;;;;;;7.32;73.79;95062.75;5006566;28;20649;-77
2024/02/27 10:16:47;;;;;;;28.87;19.83;;;;;;;7.43;74.05;95062.59;5018236;28;20247;-79
2024/02/27 10:19:12;;;;;;;35.30;24.73;;;;;;;7.54;74.28;95062.41;5019585;28;20267;-78
2024/02/27 10:21:38;;;;;;;32.37;23.83;;;;;;;7.94;73.34;95059.53;5015292;28;20198;-78
2024/02/27 10:24:03;;;;;;;34.07;21.00;;;;;;;8.33;71.25;95058.53;5020253;28;20233;-78
2024/02/27 10:26:29;;;;;;;29.20;20.63;;;;;;;8.48;69.67;95057.94;5020463;28;20629;-77
2024/02/27 10:28:56;;;;;;;28.77;20.30;;;;;;;8.66;69.38;95068.28;5021199;28;20199;-77
2024/02/27 10:31:21;;;;;;;30.90;20.23;;;;;;;8.69;69.49;95067.16;5003952;28;20698;-77
2024/02/27 10:33:47;;;;;;;25.63;19.80;;;;;;;8.64;68.58;95071.97;5022190;28;20219;-78
2024/02/27 10:36:12;;;;;;;26.47;19.93;;;;;;;8.35;69.70;95078.16;5012923;28;20301;-78
2024/02/27 10:38:37;;;;;;;25.50;19.60;;;;;;;8.64;68.91;95075.38;5019226;28;20277;-79
2024/02/27 10:41:03;;;;;;;27.77;20.60;;;;;;;8.68;68.39;95074.13;5005282;28;20202;-78
2024/02/27 10:43:32;;;;;;;26.43;19.57;;;;;;;8.62;69.12;95072.13;5022580;28;20190;-78
2024/02/27 10:45:57;;;;;;;27.03;19.97;;;;;;;8.45;70.20;95067.72;5016654;28;20715;-78
2024/02/27 10:48:23;;;;;;;29.63;20.53;;;;;;;8.35;70.36;95077.34;5019350;28;20195;-77
2024/02/27 10:50:48;;;;;;;28.20;22.57;;;;;;;8.55;70.04;95078.84;5020821;28;20609;-78
2024/02/27 10:53:14;;;;;;;29.30;21.53;;;;;;;8.64;69.97;95077.94;5018607;28;20183;-78
2024/02/27 10:55:39;;;;;;;30.23;20.20;;;;;;;8.28;70.94;95076.25;5014884;28;20217;-78
2024/02/27 10:58:04;;;;;;;29.77;20.33;;;;;;;8.12;71.54;95076.88;5002807;28;20229;-78
2024/02/27 11:00:31;;;;;;;26.80;20.20;;;;;;;8.17;71.95;95070.31;5019591;28;20198;-77
2024/02/27 11:02:57;;;;;;;30.10;21.23;;;;;;;8.31;70.88;95075.97;5018854;28;20607;-78
2024/02/27 11:05:25;;;;;;;28.80;22.03;;;;;;;8.04;71.96;95080.19;5018759;28;20207;-78
2024/02/27 11:07:52;;;;;;;29.50;19.10;;;;;;;7.93;72.53;95077.78;5022912;28;20187;-78
2024/02/27 11:10:18;;;;;;;28.70;19.83;;;;;;;8.22;70.73;95078.47;5012757;28;20657;-77
2024/02/27 11:12:47;;;;;;;25.33;19.10;;;;;;;8.30;71.15;95084.66;5018058;28;20237;-78
2024/02/27 11:15:13;;;;;;;28.20;20.57;;;;;;;8.10;71.17;95084.78;5021396;28;20735;-78
2024/02/27 11:17:42;;;;;;;25.77;19.10;;;;;;;8.12;71.59;95082.84;5015251;28;20210;-78
2024/02/27 11:20:08;;;;;;;25.70;19.30;;;;;;;8.37;69.78;95081.41;5017368;28;20186;-79
2024/02/27 11:22:34;;;;;;;27.23;18.93;;;;;;;8.29;70.36;95078.69;5016303;28;20186;-78
2024/02/27 11:25:00;;;;;;;28.20;19.63;;;;;;;8.37;70.73;95081.41;5006920;28;20223;-78
2024/02/27 11:27:26;;;;;;;25.30;19.33;;;;;;;8.85;68.84;95082.03;5006307;28;20186;-77